Aérodrome :
LOGIN :

S'inscrire | Disclaimer

   EN    FR    IT 

 










Légende :    VFR   VFR Marginal   IFR   IFR Intensif   IFR Très Intensif
Visi : 
Plafond : 
>= 8 km
>= 3000ft
5 à 8 km
1000 à 3000 ft
1500m à 5 km
500 à 1000 ft
800 à 1500m
200 à 500 ft
< 800m
< 200 ft
Symboles :   Orages  Brouillard  Fortes neiges  Fortes précipitations  Vent > 20 kt
SIGMETs :   Divers  Orages  Givrage  Turbulence  Onde Orograph.  Cendres Volcan.







- Altitude de l'aérodrome : 26 ft
- Code IATA : BIA
- Voir les cartes d'approche


LFKB - Bastia

DERNIER METAR :
  • 231500Z AUTO 07004KT 9999 BKN013 BKN019 14/12 Q1022 BECMG SCT020

METARs EXPIRÉS :
  • 231430Z AUTO 07004KT 030V100 9999 BKN015 15/12 Q1021 NOSIG
  • 231400Z AUTO 08005KT 9999 BKN016 BKN025 15/12 Q1021 NOSIG
  • 231330Z AUTO 10004KT 060V140 9999 BKN020 BKN025 15/12 Q1021 NOSIG
  • 231300Z AUTO 08004KT 040V110 9999 SCT019 16/11 Q1020 NOSIG
  • 231230Z AUTO 08005KT 050V120 CAVOK 16/11 Q1020 NOSIG

TAF TAF LFKB
Valide du 23 à 15h jusqu'au 24 à 15h UTC


231400Z 2315/2415 10006KT 9999 SCT020
BECMG 2318/2320 22006KT
BECMG 2407/2409 10008KT
TEMPO 2408/2415 BKN014 TX17/2413Z TN06/2404Z
ATIS : +33 4 95 59 19 40
Pas de NOTAMs connus pour ce terrain.



MET'MAP, la Météo Aéronautique d'un coup d'oeil ! - Copyright ORBIFLY Décembre 2007 - Disclaimer

ORBIFLY MET'MAP TEAM :

Programmation & Développement : Alexandra Zaïnal
Conception & Développement : Baudouin d'Aumeries
Co-Programmation & Développement : Marc-Olivier Méhu
Soutien technique & logistique : Manuel Goepfert

Contact : metmap@orbifly.com




SOURCES & CREDITS :

   NOAA